METAR Data
IDs: Format: Raw Decoded Include TAF

Data at: 1831 UTC 16 Oct 2021

KBLV 161756Z AUTO 31013G22KT 10SM CLR 17/04 A3017 RMK AO2 SLP220 T01670037 10168 20075 50000 $